Monday, December 10, 2018, 10:03 PM EST
Back to Local

KTTN, Trenton Mercer County Airport

Location: Trenton, NJ, United States Lat: 40.283
Local Time: 10:03 PM EST ( 3:03 GMT) Lon: -74.817
Time Zone: US/Eastern Elev: 213 ft

Show me the last for .
Show Decoded

2018-12-10 21:53 METAR KTTN 110253Z 36005KT 10SM CLR M01/M07 A3016 RMK AO2 SLP210 T10111072 51009
                 =
2018-12-10 20:53 METAR KTTN 110153Z 35006KT 10SM CLR M02/M07 A3015 RMK AO2 SLP207 T10171072 =
2018-12-10 19:53 METAR KTTN 110053Z 35004KT 10SM CLR M02/M07 A3015 RMK AO2 SLP205 T10171072 =
2018-12-10 18:53 METAR KTTN 102353Z 34003KT 10SM CLR M01/M07 A3014 RMK AO2 SLP201 T10061072 10050
                 21006 51007 =
2018-12-10 17:53 METAR KTTN 102253Z 35003KT 10SM CLR 01/M07 A3013 RMK AO2 SLP200 T00111067 =
2018-12-10 16:53 METAR KTTN 102153Z 00000KT 10SM CLR 03/M07 A3012 RMK AO2 SLP197 T00281067 =
2018-12-10 15:53 METAR KTTN 102053Z 01004KT 10SM CLR 04/M07 A3011 RMK AO2 SLP194 T00441067 53000
                 =
2018-12-10 14:53 METAR KTTN 101953Z 36006KT 10SM CLR 04/M06 A3010 RMK AO2 SLP189 T00441061 =
2018-12-10 13:53 METAR KTTN 101853Z VRB04KT 10SM CLR 04/M06 A3011 RMK AO2 SLP191 T00391056 =
2018-12-10 12:53 METAR KTTN 101753Z 03006KT 10SM CLR 04/M05 A3011 RMK AO2 SLP193 T00391050 10039
                 21044 58014 =
2018-12-10 11:53 METAR KTTN 101653Z 04007KT 10SM CLR 03/M06 A3013 RMK AO2 SLP197 T00281056 =
2018-12-10 10:53 METAR KTTN 101553Z 36009KT 10SM CLR 03/M06 A3015 RMK AO2 SLP205 T00281056 =
2018-12-10 09:53 METAR KTTN 101453Z 02007KT 10SM CLR 02/M06 A3015 RMK AO2 SLP207 T00171056 53015
                 =
2018-12-10 08:53 METAR KTTN 101353Z 35004KT 10SM CLR M01/M06 A3014 RMK AO2 SLP202 T10061061 =
2018-12-10 07:53 METAR KTTN 101253Z 35003KT 10SM CLR M03/M07 A3012 RMK AO2 SLP196 T10281072 =
2018-12-10 06:53 METAR KTTN 101153Z 34005KT 10SM CLR M04/M08 A3011 RMK AO2 SLP192 T10391083 11028
                 21056 53009 =
2018-12-10 05:53 METAR KTTN 101053Z 33007KT 10SM CLR M03/M08 A3009 RMK AO2 SLP185 T10331083 =
2018-12-10 04:53 METAR KTTN 100953Z AUTO 32005KT 10SM CLR M04/M09 A3008 RMK AO2 SLP182 T10391089
                 =
2018-12-10 03:53 METAR KTTN 100853Z AUTO 33005KT 10SM CLR M04/M09 A3008 RMK AO2 SLP183 T10391089
                 58008 =
2018-12-10 02:53 METAR KTTN 100753Z AUTO 33006KT 10SM CLR M04/M09 A3010 RMK AO2 SLP189 T10391089
                 =
2018-12-10 01:53 METAR KTTN 100653Z AUTO 34003KT 10SM CLR M04/M09 A3010 RMK AO2 SLP189 T10441094
                 =
2018-12-10 00:53 METAR KTTN 100553Z AUTO 34004KT 10SM CLR M03/M09 A3011 RMK AO2 SLP191 T10331089
                 11006 21033 56025 =
2018-12-09 23:53 METAR KTTN 100453Z AUTO 00000KT 10SM CLR M03/M08 A3012 RMK AO2 SLP197 T10281083
                 400111050 =
2018-12-09 22:53 METAR KTTN 100353Z AUTO 33005KT 10SM CLR M02/M07 A3015 RMK AO2 SLP206 T10221072
                 =

Support USWX by starting your Amazon purchase here.